Time;durP1;ratioP1;P1;durP2;ratioP2;P2;SDS_P1;SDS_P2;PMS_P1;PMS_P2;Temp;Humidity;BMP_temperature;BMP_pressure;BME280_temperature;BME280_humidity;BME280_pressure;Samples;Min_cycle;Max_cycle;Signal;HPM_P1;HPM_P2
2022/05/14 00:02:11;;;;;;;76.68;10.57;;;;;;;;;;5072476;28;20098;-78
2022/05/14 00:04:38;;;;;;;67.70;10.93;;;;;;;;;;5055510;28;20040;-78
2022/05/14 00:07:04;;;;;;;53.90;10.27;;;;;;;;;;5072083;28;20116;-78
2022/05/14 00:09:30;;;;;;;54.78;11.05;;;;;;;;;;5072120;28;20056;-78
2022/05/14 00:14:41;;;;;;;74.13;10.88;;;;;;;;;;5072322;28;20052;-78
2022/05/14 00:17:07;;;;;;;65.93;11.00;;;;;;;;;;5039139;28;20047;-78
2022/05/14 00:19:33;;;;;;;69.53;13.35;;;;;;;;;;5055390;28;20439;-79
2022/05/14 00:21:59;;;;;;;74.63;14.82;;;;;;;;;;5072094;28;20370;-78
2022/05/14 00:24:25;;;;;;;66.55;12.43;;;;;;;;;;5072534;28;20474;-78
2022/05/14 00:26:51;;;;;;;72.82;12.70;;;;;;;;;;5072240;28;20051;-78
2022/05/14 00:29:18;;;;;;;59.92;12.95;;;;;;;;;;5071843;28;20070;-79
2022/05/14 00:31:44;;;;;;;67.38;12.48;;;;;;;;;;5038972;28;20058;-78
2022/05/14 00:34:10;;;;;;;80.15;12.63;;;;;;;;;;5071888;28;20500;-79
2022/05/14 00:36:36;;;;;;;76.22;12.98;;;;;;;;;;5038865;28;20036;-79
2022/05/14 00:39:03;;;;;;;79.60;12.80;;;;;;;;;;5055305;28;20048;-79
2022/05/14 00:41:29;;;;;;;100.93;14.68;;;;;;;;;;5071727;28;20058;-79
2022/05/14 00:43:57;;;;;;;80.22;13.15;;;;;;;;;;5071782;28;20468;-79
2022/05/14 00:46:23;;;;;;;84.70;13.20;;;;;;;;;;5071855;28;20469;-78
2022/05/14 00:48:53;;;;;;;82.82;11.43;;;13.30;99.90;;;;;;5071771;28;20040;-78
2022/05/14 00:51:28;;;;;;;83.75;12.05;;;13.60;99.90;;;;;;5071993;28;20036;-79
2022/05/14 00:54:02;;;;;;;72.30;11.45;;;;;;;;;;5074147;28;20482;-78
2022/05/14 00:56:34;;;;;;;68.97;14.80;;;13.50;99.90;;;;;;5076024;28;20048;-79
2022/05/14 00:59:10;;;;;;;61.50;12.45;;;14.50;99.90;;;;;;5059066;28;20043;-79
2022/05/14 01:01:37;;;;;;;79.63;14.65;;;13.30;99.90;;;;;;5075728;28;20052;-78
2022/05/14 01:04:03;;;;;;;88.05;13.68;;;;;;;;;;5075838;28;20123;-77
2022/05/14 01:06:30;;;;;;;90.70;13.93;;;;;;;;;;5058747;28;20055;-75
2022/05/14 01:08:59;;;;;;;85.65;12.75;;;;;;;;;;5075400;28;20036;-75
2022/05/14 01:11:27;;;;;;;78.05;13.80;;;13.30;99.90;;;;;;5075617;28;20052;-75
2022/05/14 01:13:53;;;;;;;85.97;15.10;;;;;;;;;;5059143;28;20411;-76
2022/05/14 01:16:20;;;;;;;81.20;13.32;;;;;;;;;;5075414;28;20040;-75
2022/05/14 01:18:46;;;;;;;73.07;13.25;;;;;;;;;;5075203;28;20041;-75
2022/05/14 01:21:12;;;;;;;74.72;12.70;;;;;;;;;;5058689;28;20123;-75
2022/05/14 01:26:36;;;;;;;88.53;13.60;;;;;;;;;;5075047;28;20412;-76
2022/05/14 01:29:08;;;;;;;61.35;11.43;;;13.20;99.90;;;;;;5074938;28;20392;-76
2022/05/14 01:31:34;;;;;;;80.05;12.85;;;13.50;99.90;;;;;;5074950;28;20036;-76
2022/05/14 01:34:05;;;;;;;81.80;11.38;;;13.00;99.90;;;;;;5075162;28;20036;-76
2022/05/14 01:36:33;;;;;;;80.75;11.70;;;13.10;99.90;;;;;;5058206;28;20048;-76
2022/05/14 01:38:59;;;;;;;90.07;12.07;;;;;;;;;;5075183;28;20048;-76
2022/05/14 01:41:25;;;;;;;72.72;12.35;;;;;;;;;;5074952;28;20093;-76
2022/05/14 01:43:51;;;;;;;70.15;13.70;;;;;;;;;;5058487;28;20388;-76
2022/05/14 01:46:17;;;;;;;79.30;12.68;;;;;;;;;;5074702;28;20040;-76
2022/05/14 01:48:44;;;;;;;79.80;12.70;;;;;;;;;;5075005;28;20139;-76
2022/05/14 01:51:10;;;;;;;72.45;12.10;;;;;;;;;;5058250;28;20037;-76
2022/05/14 01:53:36;;;;;;;69.93;13.25;;;;;;;;;;5074802;28;20032;-75
2022/05/14 01:56:02;;;;;;;89.72;12.73;;;;;;;;;;5058044;28;20040;-75
2022/05/14 01:58:37;;;;;;;70.10;12.40;;;;;;;;;;5074583;28;20058;-75
2022/05/14 02:01:15;;;;;;;76.20;14.50;;;13.10;99.90;;;;;;5059176;28;20244;-75
2022/05/14 02:03:42;;;;;;;74.93;13.45;;;;;;;;;;5074205;28;20395;-75
2022/05/14 02:06:08;;;;;;;64.60;12.43;;;;;;;;;;5074239;28;20047;-75
2022/05/14 02:08:34;;;;;;;84.22;13.82;;;;;;;;;;5058074;28;20033;-76
2022/05/14 02:11:01;;;;;;;63.83;12.85;;;;;;;;;;5074141;28;20040;-76
2022/05/14 02:13:27;;;;;;;67.07;12.55;;;;;;;;;;5074648;28;20393;-76
2022/05/14 02:15:53;;;;;;;69.38;12.95;;;;;;;;;;5074318;28;20503;-75
2022/05/14 02:18:19;;;;;;;61.17;12.23;;;;;;;;;;5074119;28;20127;-75
2022/05/14 02:20:46;;;;;;;78.65;14.18;;;;;;;;;;5074156;28;20047;-76
2022/05/14 02:23:12;;;;;;;69.07;13.18;;;;;;;;;;5074243;28;20041;-75
2022/05/14 02:25:39;;;;;;;68.70;12.40;;;12.70;99.90;;;;;;5073889;28;20072;-75
2022/05/14 02:28:06;;;;;;;72.32;13.45;;;;;;;;;;5057593;28;20447;-75
2022/05/14 02:30:32;;;;;;;79.22;13.73;;;;;;;;;;5057518;28;20041;-76
2022/05/14 02:32:58;;;;;;;66.38;12.60;;;;;;;;;;5073971;28;20041;-76
2022/05/14 02:35:24;;;;;;;65.38;12.85;;;;;;;;;;5057176;28;20056;-76
2022/05/14 02:37:50;;;;;;;77.60;13.68;;;;;;;;;;5073718;28;20047;-75
2022/05/14 02:40:16;;;;;;;73.75;12.07;;;;;;;;;;5057118;28;20075;-76
2022/05/14 02:42:42;;;;;;;81.32;13.35;;;;;;;;;;5073673;28;20041;-75
2022/05/14 02:45:09;;;;;;;77.55;12.23;;;11.40;99.90;;;;;;5073797;28;20076;-76
2022/05/14 02:47:35;;;;;;;80.60;13.32;;;;;;;;;;5073925;28;20048;-76
2022/05/14 02:50:02;;;;;;;74.60;13.40;;;;;;;;;;5073763;28;20040;-75
2022/05/14 02:52:28;;;;;;;78.55;12.93;;;;;;;;;;5073786;28;20037;-75
2022/05/14 02:54:54;;;;;;;58.40;11.52;;;;;;;;;;5057060;28;20052;-75
2022/05/14 02:57:20;;;;;;;69.47;12.27;;;;;;;;;;5057048;28;20121;-76
2022/05/14 02:59:46;;;;;;;75.38;13.05;;;;;;;;;;5073478;28;20097;-75
2022/05/14 03:02:12;;;;;;;70.68;12.20;;;;;;;;;;5057407;28;20048;-76
2022/05/14 03:04:40;;;;;;;56.20;12.00;;;;;;;;;;5073310;28;20087;-76
2022/05/14 03:07:08;;;;;;;74.68;13.50;;;12.10;99.90;;;;;;5056784;28;20079;-75
2022/05/14 03:09:35;;;;;;;56.50;11.35;;;;;;;;;;5056713;28;20179;-75
2022/05/14 03:12:01;;;;;;;67.60;13.00;;;;;;;;;;5073173;28;20072;-76
2022/05/14 03:14:27;;;;;;;64.97;12.32;;;;;;;;;;5073115;28;20055;-76
2022/05/14 03:16:53;;;;;;;67.78;13.18;;;;;;;;;;5072590;28;20090;-75
2022/05/14 03:19:19;;;;;;;77.50;13.50;;;;;;;;;;5073300;28;20059;-75
2022/05/14 03:21:46;;;;;;;64.03;13.02;;;;;;;;;;5073126;28;20041;-76
2022/05/14 03:24:12;;;;;;;63.97;11.77;;;;;;;;;;5073192;28;20041;-76
2022/05/14 03:26:40;;;;;;;78.18;14.23;;;12.30;99.90;;;;;;5056050;28;20076;-76
2022/05/14 03:29:07;;;;;;;78.72;12.35;;;;;;;;;;5072958;28;20044;-76
2022/05/14 03:31:33;;;;;;;69.22;12.90;;;;;;;;;;5072712;28;20116;-76
2022/05/14 03:34:00;;;;;;;66.00;14.35;;;;;;;;;;5072640;28;20044;-75
2022/05/14 03:36:27;;;;;;;78.55;13.95;;;;;;;;;;5072554;28;20127;-75
2022/05/14 03:38:53;;;;;;;71.50;13.25;;;;;;;;;;5056055;28;20106;-76
2022/05/14 03:41:20;;;;;;;65.90;14.32;;;;;;;;;;5072853;28;20142;-75
2022/05/14 03:43:46;;;;;;;64.07;12.43;;;;;;;;;;5072849;28;20044;-76
2022/05/14 03:46:12;;;;;;;67.38;12.73;;;;;;;;;;5072597;28;20044;-76
2022/05/14 03:48:39;;;;;;;45.17;11.10;;;;;;;;;;5072480;28;20036;-75
2022/05/14 03:51:05;;;;;;;62.97;11.75;;;12.20;99.90;;;;;;5055860;28;20125;-76
2022/05/14 03:53:32;;;;;;;61.25;11.82;;;12.00;99.90;;;;;;5055661;28;20047;-76
2022/05/14 03:55:58;;;;;;;63.42;12.52;;;;;;;;;;5072238;28;20041;-75
2022/05/14 03:58:24;;;;;;;64.90;12.65;;;;;;;;;;5072332;28;20102;-76
2022/05/14 04:00:50;;;;;;;64.85;12.45;;;;;;;;;;5039097;28;20123;-76
2022/05/14 04:03:16;;;;;;;61.05;12.43;;;;;;;;;;5072221;28;20496;-76
2022/05/14 04:05:43;;;;;;;71.32;13.85;;;;;;;;;;5071972;28;20090;-76
2022/05/14 04:08:09;;;;;;;48.20;13.23;;;;;;;;;;5071997;28;20508;-77
2022/05/14 04:10:35;;;;;;;62.08;14.93;;;;;;;;;;5072080;28;20500;-76
2022/05/14 04:13:01;;;;;;;53.47;12.45;;;;;;;;;;5071853;28;20048;-75
2022/05/14 04:15:27;;;;;;;66.38;14.02;;;12.00;99.90;;;;;;5072291;28;20106;-75
2022/05/14 04:17:54;;;;;;;70.70;12.38;;;;;;;;;;5072038;28;20048;-76
2022/05/14 04:20:20;;;;;;;73.60;14.40;;;;;;;;;;5055468;28;20076;-76
2022/05/14 04:22:47;;;;;;;61.92;11.80;;;;;;;;;;5072164;28;20041;-76
2022/05/14 04:25:13;;;;;;;72.53;13.30;;;;;;;;;;5072079;28;20097;-76
2022/05/14 04:27:44;;;;;;;65.60;12.85;;;;;;;;;;5071921;28;20043;-77
2022/05/14 04:30:10;;;;;;;69.78;13.25;;;;;;;;;;5072219;28;20051;-76
2022/05/14 04:32:36;;;;;;;61.70;12.48;;;;;;;;;;5072006;28;20041;-76
2022/05/14 04:35:03;;;;;;;54.58;11.65;;;;;;;;;;5071733;28;20036;-76
2022/05/14 04:37:29;;;;;;;53.95;11.85;;;;;;;;;;5071734;28;20381;-76
2022/05/14 04:39:55;;;;;;;59.72;12.20;;;;;;;;;;5071853;28;20182;-76
2022/05/14 04:42:21;;;;;;;65.25;12.18;;;;;;;;;;5055238;28;20047;-76
2022/05/14 04:44:47;;;;;;;49.10;11.60;;;;;;;;;;5071669;28;20041;-76
2022/05/14 04:47:16;;;;;;;49.85;11.82;;;;;;;;;;5071764;28;20120;-76
2022/05/14 04:49:45;;;;;;;51.03;12.05;;;12.00;99.90;;;;;;5072204;28;20124;-76
2022/05/14 04:52:12;;;;;;;57.58;11.63;;;;;;;;;;5071771;28;20044;-76
2022/05/14 04:54:38;;;;;;;58.58;11.60;;;;;;;;;;5071919;28;20124;-76
2022/05/14 04:57:05;;;;;;;83.15;12.55;;;11.90;99.90;;;;;;5071673;28;20045;-76
2022/05/14 04:59:31;;;;;;;60.72;11.70;;;;;;;;;;5054983;28;20063;-79
2022/05/14 05:04:43;;;;;;;57.20;12.93;;;;;;;;;;5071479;28;20044;-77
2022/05/14 05:07:09;;;;;;;58.72;11.70;;;;;;;;;;5071297;28;20093;-78
2022/05/14 05:09:35;;;;;;;45.40;12.77;;;;;;;;;;5071370;28;20059;-79
2022/05/14 05:12:02;;;;;;;66.85;13.73;;;;;;;;;;5054691;28;20061;-78
2022/05/14 05:14:28;;;;;;;52.17;12.70;;;;;;;;;;5071491;28;20047;-78
2022/05/14 05:16:54;;;;;;;71.15;13.48;;;;;;;;;;5071437;28;20090;-78
2022/05/14 05:19:20;;;;;;;66.28;12.27;;;;;;;;;;5071514;28;20071;-78
2022/05/14 05:21:46;;;;;;;60.85;12.15;;;;;;;;;;5054709;28;20468;-78
2022/05/14 05:24:13;;;;;;;65.32;11.98;;;;;;;;;;5071485;28;20523;-78
2022/05/14 05:26:39;;;;;;;66.13;10.80;;;;;;;;;;5071524;28;20040;-77
2022/05/14 05:29:05;;;;;;;57.97;10.27;;;12.70;99.90;;;;;;5054643;28;20041;-78
2022/05/14 05:31:32;;;;;;;58.58;11.30;;;;;;;;;;5054893;28;20047;-78
2022/05/14 05:34:00;;;;;;;52.75;10.57;;;12.40;99.90;;;;;;5071315;28;20056;-77
2022/05/14 05:36:26;;;;;;;57.55;11.20;;;;;;;;;;5071521;28;20049;-78
2022/05/14 05:38:52;;;;;;;50.55;9.18;;;;;;;;;;5055218;28;20040;-79
2022/05/14 05:41:19;;;;;;;51.42;10.02;;;;;;;;;;5058629;28;20123;-78
2022/05/14 05:43:45;;;;;;;44.50;9.38;;;;;;;;;;5075149;28;20052;-79
2022/05/14 05:46:11;;;;;;;57.63;10.48;;;;;;;;;;5074644;28;20094;-78
2022/05/14 05:48:39;;;;;;;61.80;9.45;;;12.60;99.90;;;;;;5074747;28;20457;-79
2022/05/14 05:51:05;;;;;;;52.30;9.68;;;;;;;;;;5074685;28;20049;-76
2022/05/14 05:59:03;;;;;;;51.35;8.60;;;;;;;;;;5074762;28;20392;-78
2022/05/14 06:01:29;;;;;;;53.90;8.40;;;;;;;;;;5058217;28;20052;-79
2022/05/14 06:03:55;;;;;;;42.47;7.63;;;;;;;;;;5074451;28;20052;-78
2022/05/14 06:06:21;;;;;;;50.50;8.68;;;;;;;;;;5057612;28;20047;-78
2022/05/14 06:08:48;;;;;;;53.83;9.15;;;;;;;;;;5074407;28;20037;-78
2022/05/14 06:11:15;;;;;;;48.13;9.13;;;13.30;99.90;;;;;;5057700;28;20672;-78
2022/05/14 06:13:43;;;;;;;54.75;8.88;;;;;;;;;;5074449;28;20045;-78
2022/05/14 06:16:12;;;;;;;47.90;9.50;;;;;;;;;;5074338;28;20044;-79
2022/05/14 06:18:39;;;;;;;48.67;8.00;;;;;;;;;;5074049;28;20040;-79
2022/05/14 06:21:06;;;;;;;45.78;8.70;;;13.50;99.90;;;;;;5057597;28;20036;-79
2022/05/14 06:23:32;;;;;;;44.97;8.23;;;;;;;;;;5040926;28;20511;-79
2022/05/14 06:25:58;;;;;;;56.88;9.32;;;;;;;;;;5057303;28;20040;-78
2022/05/14 06:28:24;;;;;;;42.25;7.85;;;;;;;;;;5074121;28;20036;-79
2022/05/14 06:30:51;;;;;;;60.85;9.55;;;;;;;;;;5057248;28;20484;-79
2022/05/14 06:33:21;;;;;;;47.05;8.70;;;13.80;99.90;;;;;;5041101;28;20392;-79
2022/05/14 06:35:47;;;;;;;54.80;9.32;;;;;;;;;;5073799;28;20051;-78
2022/05/14 06:38:14;;;;;;;47.22;7.97;;;;;;;;;;5073734;28;20045;-78
2022/05/14 06:40:40;;;;;;;52.03;7.70;;;;;;;;;;5073985;28;20470;-78
2022/05/14 06:43:06;;;;;;;50.78;8.32;;;;;;;;;;5056896;28;20076;-78
2022/05/14 06:45:32;;;;;;;55.17;8.20;;;;;;;;;;5073650;28;20048;-77
2022/05/14 06:47:59;;;;;;;42.78;6.10;;;;;;;;;;5057091;28;20047;-79
2022/05/14 06:50:26;;;;;;;52.03;7.85;;;14.10;99.90;;;;;;5072728;28;20041;-78
2022/05/14 06:52:57;;;;;;;53.08;8.65;;;14.30;99.90;;;;;;5056809;28;20074;-79
2022/05/14 06:55:26;;;;;;;47.20;7.60;;;14.20;99.90;;;;;;5073638;28;20045;-79
2022/05/14 06:57:52;;;;;;;42.28;7.32;;;;;;;;;;5057271;28;20408;-78
2022/05/14 07:00:20;;;;;;;44.95;8.07;;;14.40;99.90;;;;;;5073358;28;20047;-79
2022/05/14 07:02:48;;;;;;;50.33;7.78;;;14.30;99.90;;;;;;5073249;28;20044;-78
2022/05/14 07:07:59;;;;;;;56.47;7.63;;;;;;;;;;5073026;28;20037;-79
2022/05/14 07:10:26;;;;;;;45.30;7.57;;;;;;;;;;5056518;28;20442;-79
2022/05/14 07:12:53;;;;;;;54.53;7.72;;;;;;;;;;5072917;28;20053;-78
2022/05/14 07:15:19;;;;;;;42.78;8.07;;;;;;;;;;5056721;28;20046;-79
2022/05/14 07:17:45;;;;;;;42.63;6.75;;;;;;;;;;5072959;28;20044;-78
2022/05/14 07:20:11;;;;;;;46.83;7.13;;;15.60;99.90;;;;;;5056137;28;20090;-79
2022/05/14 07:22:38;;;;;;;51.28;7.63;;;;;;;;;;5072822;28;20036;-79
2022/05/14 07:25:04;;;;;;;40.67;7.32;;;;;;;;;;5056325;28;20044;-79
2022/05/14 07:27:30;;;;;;;47.60;6.53;;;;;;;;;;5056197;28;20036;-79
2022/05/14 07:29:56;;;;;;;51.40;7.43;;;;;;;;;;5072924;28;20041;-79
2022/05/14 07:32:23;;;;;;;38.15;6.00;;;;;;;;;;5039948;28;20373;-79
2022/05/14 07:34:51;;;;;;;45.83;6.47;;;14.80;97.90;;;;;;5072536;28;20036;-79
2022/05/14 07:37:18;;;;;;;50.70;7.82;;;;;;;;;;5039270;28;20032;-79
2022/05/14 07:39:57;;;;;;;48.17;8.07;;;15.00;98.70;;;;;;5056648;28;20115;-79
2022/05/14 07:42:37;;;;;;;40.97;6.43;;;15.10;98.70;;;;;;5072734;28;20392;-78
2022/05/14 07:45:07;;;;;;;45.10;7.05;;;;;;;;;;5055691;28;20049;-79
2022/05/14 07:47:33;;;;;;;43.70;7.97;;;;;;;;;;5072581;28;20437;-79
2022/05/14 07:50:01;;;;;;;39.13;6.88;;;15.40;98.00;;;;;;5072351;28;20079;-78
2022/05/14 07:52:27;;;;;;;38.30;7.40;;;;;;;;;;5056249;28;20550;-79
2022/05/14 07:54:54;;;;;;;38.50;6.53;;;;;;;;;;5072232;28;20040;-78
2022/05/14 07:57:20;;;;;;;47.78;6.85;;;;;;;;;;5072549;28;20381;-78
2022/05/14 07:59:46;;;;;;;37.22;6.63;;;;;;;;;;5072396;28;20032;-78
2022/05/14 08:02:31;;;;;;;50.17;7.00;;;14.60;99.90;;;;;;5072165;28;20047;-78
2022/05/14 08:04:57;;;;;;;44.25;7.18;;;;;;;;;;5072403;28;20086;-80
2022/05/14 08:07:23;;;;;;;40.05;6.80;;;;;;;;;;5072182;28;20040;-78
2022/05/14 08:09:50;;;;;;;55.10;7.38;;;;;;;;;;5072439;28;20366;-80
2022/05/14 08:12:16;;;;;;;55.72;7.20;;;;;;;;;;5071830;28;20048;-78
2022/05/14 08:14:42;;;;;;;47.10;6.65;;;;;;;;;;5072486;28;20110;-77
2022/05/14 08:17:09;;;;;;;51.65;7.28;;;;;;;;;;5072443;28;20068;-75
2022/05/14 08:19:35;;;;;;;44.00;7.03;;;;;;;;;;5072040;28;20049;-74
2022/05/14 08:24:47;;;;;;;37.65;6.53;;;;;;;;;;5071877;28;20048;-75
2022/05/14 08:27:13;;;;;;;61.60;7.57;;;;;;;;;;5072052;28;20040;-75
2022/05/14 08:29:39;;;;;;;48.72;6.68;;;;;;;;;;5072254;28;20143;-75
2022/05/14 08:32:06;;;;;;;62.20;7.80;;;;;;;;;;5055341;28;20033;-78
2022/05/14 08:34:32;;;;;;;51.30;7.97;;;;;;;;;;5072019;28;20083;-78
2022/05/14 08:36:58;;;;;;;63.78;9.07;;;;;;;;;;5055077;28;20040;-78
2022/05/14 08:39:27;;;;;;;45.35;7.50;;;;;;;;;;5071995;28;20051;-78
2022/05/14 08:41:54;;;;;;;47.85;7.47;;;;;;;;;;5055041;28;20404;-79
2022/05/14 08:44:22;;;;;;;49.70;7.38;;;;;;;;;;5055147;28;20507;-78
2022/05/14 08:46:53;;;;;;;51.22;7.25;;;16.40;96.50;;;;;;5071585;28;20041;-75
2022/05/14 08:49:33;;;;;;;53.15;8.52;;;;;;;;;;5071793;28;20051;-75
2022/05/14 08:51:59;;;;;;;59.35;8.88;;;;;;;;;;5054999;28;20531;-75
2022/05/14 08:54:26;;;;;;;50.97;8.20;;;16.20;96.40;;;;;;5055055;28;20037;-74
2022/05/14 08:57:11;;;;;;;55.38;8.48;;;16.40;96.40;;;;;;5071836;28;20040;-75
2022/05/14 08:59:57;;;;;;;52.35;8.68;;;16.40;96.40;;;;;;5071718;28;20102;-75
2022/05/14 09:02:30;;;;;;;51.78;8.20;;;16.60;96.30;;;;;;5072006;28;20381;-75
2022/05/14 09:05:13;;;;;;;59.22;8.52;;;16.20;96.30;;;;;;5071444;28;20040;-75
2022/05/14 09:07:40;;;;;;;42.60;9.45;;;;;;;;;;5071744;28;20059;-75
2022/05/14 09:10:08;;;;;;;47.92;8.63;;;16.40;95.70;;;;;;5071652;28;20064;-75
2022/05/14 09:12:37;;;;;;;51.55;7.80;;;16.40;95.70;;;;;;5054774;28;20147;-75
2022/05/14 09:15:13;;;;;;;56.95;8.65;;;16.50;95.70;;;;;;5073965;28;20044;-74
2022/05/14 09:17:39;;;;;;;55.70;8.95;;;;;;;;;;5075387;28;20496;-75
2022/05/14 09:20:07;;;;;;;65.95;10.07;;;16.70;99.60;;;;;;5042150;28;20044;-74
2022/05/14 09:22:54;;;;;;;76.88;10.38;;;16.90;96.20;;;;;;5058692;28;20044;-75
2022/05/14 09:25:34;;;;;;;54.80;7.75;;;17.10;95.70;;;;;;5075302;28;20389;-75
2022/05/14 09:28:05;;;;;;;66.95;9.85;;;;;;;;;;5075527;28;20397;-75
2022/05/14 09:30:36;;;;;;;69.88;9.50;;;17.30;94.80;;;;;;5058632;28;20033;-75
2022/05/14 09:33:08;;;;;;;56.60;8.27;;;17.40;95.00;;;;;;5075112;28;20457;-76
2022/05/14 09:35:35;;;;;;;53.20;7.97;;;17.30;94.20;;;;;;5058575;28;20053;-75
2022/05/14 09:38:23;;;;;;;57.92;8.85;;;17.30;98.40;;;;;;5075066;28;20040;-76
2022/05/14 09:40:49;;;;;;;55.75;8.18;;;;;;;;;;5058184;28;20037;-76
2022/05/14 09:43:15;;;;;;;51.00;7.88;;;;;;;;;;5074840;28;20075;-75
2022/05/14 09:45:56;;;;;;;58.55;8.82;;;17.50;94.50;;;;;;5074729;28;20162;-75
2022/05/14 09:48:29;;;;;;;65.63;8.05;;;17.50;93.60;;;;;;5058632;28;20040;-75
2022/05/14 09:51:02;;;;;;;53.70;7.93;;;17.30;92.80;;;;;;5057882;28;20047;-75
2022/05/14 09:53:38;;;;;;;58.92;9.13;;;17.80;93.70;;;;;;5058009;28;20040;-75
2022/05/14 09:56:04;;;;;;;48.95;8.48;;;;;;;;;;5057871;28;20048;-75
2022/05/14 09:58:51;;;;;;;51.53;6.90;;;17.80;92.10;;;;;;5074480;28;20041;-75
2022/05/14 10:01:19;;;;;;;57.67;8.00;;;;;;;;;;5074496;28;20048;-75
2022/05/14 10:04:05;;;;;;;65.10;8.23;;;18.00;93.10;;;;;;5074448;28;20087;-75
2022/05/14 10:06:40;;;;;;;49.85;7.55;;;17.50;94.20;;;;;;5074153;28;20613;-75
2022/05/14 10:09:06;;;;;;;57.25;8.30;;;;;;;;;;5074209;28;20040;-76
2022/05/14 10:11:34;;;;;;;58.40;8.10;;;;;;;;;;5074440;28;20396;-75
2022/05/14 10:14:11;;;;;;;48.13;7.43;;;18.00;92.80;;;;;;5074030;28;20484;-75
2022/05/14 10:17:03;;;;;;;51.17;8.02;;;18.00;92.40;;;;;;5057423;28;20040;-76
2022/05/14 10:19:50;;;;;;;56.67;8.65;;;18.80;92.50;;;;;;5057552;28;20354;-75
2022/05/14 10:22:16;;;;;;;59.38;8.75;;;;;;;;;;5074054;28;20047;-76
2022/05/14 10:28:23;;;;;;;58.22;9.13;;;18.00;92.40;;;;;;5073999;28;20055;-75
2022/05/14 10:30:55;;;;;;;59.33;8.57;;;;;;;;;;5074103;28;20510;-75
2022/05/14 10:33:23;;;;;;;42.63;7.72;;;;;;;;;;5074070;28;20178;-76
2022/05/14 10:36:26;;;;;;;51.00;7.85;;;18.20;90.80;;;;;;5057135;28;20036;-76
2022/05/14 10:39:03;;;;;;;60.63;8.25;;;18.40;91.80;;;;;;5049086;28;20045;-75
2022/05/14 10:41:43;;;;;;;55.20;7.63;;;;;;;;;;5057339;28;20115;-75
2022/05/14 10:44:11;;;;;;;48.88;8.63;;;18.00;91.50;;;;;;5073625;28;20079;-75
2022/05/14 10:46:39;;;;;;;52.88;7.47;;;;;;;;;;5073502;28;20425;-75
2022/05/14 10:49:20;;;;;;;56.75;7.45;;;;;;;;;;5073514;28;20048;-75
2022/05/14 10:51:50;;;;;;;53.60;8.48;;;17.90;91.30;;;;;;5056589;28;20388;-75
2022/05/14 10:54:19;;;;;;;67.95;8.13;;;18.00;91.50;;;;;;5073389;28;20040;-75
2022/05/14 10:57:01;;;;;;;63.72;8.32;;;18.20;91.70;;;;;;5073673;28;20389;-75
2022/05/14 10:59:35;;;;;;;50.40;8.60;;;18.10;90.20;;;;;;5073297;28;20123;-75
2022/05/14 11:02:24;;;;;;;53.78;7.88;;;18.40;90.60;;;;;;5073411;28;20048;-79
2022/05/14 11:04:51;;;;;;;55.17;8.27;;;;;;;;;;5073444;28;20384;-78
2022/05/14 11:07:25;;;;;;;59.80;8.15;;;19.10;94.60;;;;;;5073394;28;20045;-78
2022/05/14 11:09:52;;;;;;;58.45;8.10;;;;;;;;;;5073560;28;20123;-79
2022/05/14 11:12:21;;;;;;;56.42;8.48;;;18.30;89.40;;;;;;5056216;28;20109;-79
2022/05/14 11:14:48;;;;;;;60.53;8.27;;;;;;;;;;5073464;28;20413;-78
2022/05/14 11:17:31;;;;;;;53.20;8.25;;;19.40;90.20;;;;;;5073073;28;20037;-78
2022/05/14 11:20:08;;;;;;;52.33;8.65;;;18.00;94.30;;;;;;5056495;28;20500;-79
2022/05/14 11:22:42;;;;;;;64.25;8.73;;;17.50;94.00;;;;;;5072973;28;20396;-78
2022/05/14 11:25:16;;;;;;;48.15;7.43;;;18.40;94.50;;;;;;5072803;28;20488;-78
2022/05/14 11:27:56;;;;;;;54.20;7.28;;;18.20;90.80;;;;;;5073068;28;20098;-79
2022/05/14 11:31:10;;;;;;;59.15;7.72;;;18.40;91.00;;;;;;5072770;28;20041;-78
2022/05/14 11:33:37;;;;;;;53.72;8.45;;;18.60;90.20;;;;;;5072670;28;20123;-79
2022/05/14 11:36:13;;;;;;;57.63;8.85;;;;;;;;;;5072965;28;20610;-79
2022/05/14 11:38:43;;;;;;;58.13;7.80;;;;;;;;;;5072125;28;20076;-78
2022/05/14 11:41:14;;;;;;;54.90;7.25;;;;;;;;;;5072792;28;20459;-79
2022/05/14 11:43:43;;;;;;;49.63;8.52;;;18.50;87.80;;;;;;5072808;28;20052;-79
2022/05/14 11:46:09;;;;;;;59.28;8.88;;;;;;;;;;5072651;28;20581;-79
2022/05/14 11:49:02;;;;;;;59.95;8.98;;;18.90;90.20;;;;;;5073083;28;20037;-79
2022/05/14 11:51:57;;;;;;;51.97;8.13;;;19.30;89.90;;;;;;5055732;28;20050;-79
2022/05/14 11:54:23;;;;;;;48.65;7.20;;;;;;;;;;5072210;28;20124;-79
2022/05/14 11:57:07;;;;;;;48.72;8.75;;;19.00;87.80;;;;;;5072197;28;20048;-79
2022/05/14 11:59:51;;;;;;;54.05;8.27;;;18.60;91.90;;;;;;5072782;28;20055;-78
2022/05/14 12:02:38;;;;;;;46.10;7.03;;;18.30;92.70;;;;;;5072327;28;20075;-79
2022/05/14 12:05:08;;;;;;;61.28;7.57;;;18.70;91.30;;;;;;5072372;28;20361;-78
2022/05/14 12:07:55;;;;;;;49.85;7.47;;;19.10;89.00;;;;;;5072147;28;20036;-78
2022/05/14 12:10:55;;;;;;;46.45;8.10;;;18.30;92.90;;;;;;5072322;28;20043;-78
2022/05/14 12:13:27;;;;;;;56.88;7.05;;;20.10;93.00;;;;;;5071921;28;20060;-79
2022/05/14 12:15:57;;;;;;;60.33;7.65;;;19.70;87.20;;;;;;5072176;28;20044;-79
2022/05/14 12:18:24;;;;;;;58.47;7.80;;;;;;;;;;5055275;28;20044;-79
2022/05/14 12:21:00;;;;;;;41.30;6.70;;;20.40;92.40;;;;;;5072267;28;20040;-79
2022/05/14 12:23:42;;;;;;;55.95;8.00;;;20.30;91.90;;;;;;5055302;28;20083;-78
2022/05/14 12:26:23;;;;;;;62.38;8.02;;;20.20;92.20;;;;;;5055611;28;20044;-79
2022/05/14 12:28:51;;;;;;;54.63;8.57;;;19.90;85.60;;;;;;5072166;28;20059;-79
2022/05/14 12:34:09;;;;;;;44.83;7.13;;;20.00;91.70;;;;;;5071807;28;20044;-78
2022/05/14 12:36:43;;;;;;;62.15;8.77;;;19.90;85.10;;;;;;5071737;28;20086;-79
2022/05/14 12:39:21;;;;;;;52.65;9.00;;;19.80;83.20;;;;;;5072146;28;20053;-78
2022/05/14 12:41:51;;;;;;;59.90;7.63;;;20.20;85.00;;;;;;5072245;28;20059;-78
2022/05/14 12:44:17;;;;;;;60.60;7.40;;;;;;;;;;5071748;28;20079;-79
2022/05/14 12:46:49;;;;;;;38.85;7.45;;;21.00;85.10;;;;;;5071762;28;20045;-79
2022/05/14 12:49:22;;;;;;;55.13;7.75;;;20.00;85.10;;;;;;5056232;28;20048;-79
2022/05/14 12:51:52;;;;;;;46.47;7.88;;;19.80;85.30;;;;;;5059603;28;20068;-79
2022/05/14 12:54:28;;;;;;;55.53;8.27;;;19.70;92.00;;;;;;5075908;28;20048;-79
2022/05/14 12:56:57;;;;;;;52.80;7.80;;;19.70;85.00;;;;;;5076003;28;20197;-78
2022/05/14 12:59:23;;;;;;;49.20;6.93;;;;;;;;;;5076003;28;20071;-79
2022/05/14 13:01:54;;;;;;;64.75;8.07;;;20.30;84.30;;;;;;5075651;28;20040;-79
2022/05/14 13:04:27;;;;;;;52.70;7.97;;;20.40;83.60;;;;;;5075628;28;20051;-79
2022/05/14 13:07:00;;;;;;;51.38;7.22;;;20.40;83.50;;;;;;5075513;28;20039;-79
2022/05/14 13:09:27;;;;;;;54.70;8.27;;;;;;;;;;5075500;28;20048;-79
2022/05/14 13:11:54;;;;;;;49.20;7.82;;;;;;;;;;5075846;28;20384;-79
2022/05/14 13:14:26;;;;;;;54.03;7.47;;;21.40;90.70;;;;;;5075345;28;20131;-79
2022/05/14 13:17:01;;;;;;;42.65;7.28;;;20.70;90.60;;;;;;5075382;28;20045;-78
2022/05/14 13:19:46;;;;;;;40.20;7.72;;;21.00;82.80;;;;;;5058608;28;20053;-78
2022/05/14 13:22:28;;;;;;;54.10;7.38;;;21.20;90.00;;;;;;5075285;28;20477;-79
2022/05/14 13:24:55;;;;;;;47.25;7.53;;;20.80;81.40;;;;;;5075368;28;20086;-78
2022/05/14 13:27:33;;;;;;;62.72;9.00;;;20.70;78.90;;;;;;5058644;28;20072;-78
2022/05/14 13:30:14;;;;;;;52.05;7.65;;;20.90;81.10;;;;;;5058442;28;20074;-78
2022/05/14 13:32:40;;;;;;;47.88;7.60;;;20.80;85.80;;;;;;5075388;28;20036;-78
2022/05/14 13:38:07;;;;;;;47.08;7.25;;;20.70;89.80;;;;;;5074830;28;20044;-78
2022/05/14 13:40:53;;;;;;;47.60;8.00;;;20.50;81.00;;;;;;5075102;28;20051;-78
2022/05/14 13:43:32;;;;;;;55.60;8.68;;;20.30;79.50;;;;;;5074467;28;20499;-80
2022/05/14 13:46:09;;;;;;;53.45;7.90;;;19.70;89.90;;;;;;5058058;28;20045;-78
2022/05/14 13:48:41;;;;;;;47.55;6.63;;;20.80;90.70;;;;;;5075125;28;20036;-78
2022/05/14 13:51:09;;;;;;;;;;;19.90;83.60;;;;;;5075241;28;20047;-79
2022/05/14 13:53:39;;;;;;;55.40;7.10;;;20.00;82.20;;;;;;5074621;28;19970;-78
2022/05/14 13:56:29;;;;;;;51.80;6.63;;;20.70;90.20;;;;;;5074616;28;20044;-79
2022/05/14 13:59:00;;;;;;;43.38;7.72;;;19.90;79.60;;;;;;5057848;28;20048;-78
2022/05/14 14:01:28;;;;;;;57.08;8.82;;;20.10;90.50;;;;;;5073917;28;20055;-79
2022/05/14 14:03:56;;;;;;;42.42;6.68;;;19.20;90.00;;;;;;5058090;28;20044;-78
2022/05/14 14:06:35;;;;;;;44.15;7.22;;;20.60;90.30;;;;;;5074368;28;20040;-79
2022/05/14 14:09:03;;;;;;;48.03;7.25;;;20.40;80.90;;;;;;5074632;28;20405;-78
2022/05/14 14:11:29;;;;;;;42.90;6.82;;;20.50;89.30;;;;;;5074314;28;20041;-78
2022/05/14 14:13:55;;;;;;;49.35;8.00;;;;;;;;;;5057333;28;20048;-78
2022/05/14 14:16:21;;;;;;;44.55;6.63;;;;;;;;;;5074264;28;20048;-78
2022/05/14 14:18:47;;;;;;;38.47;7.07;;;20.90;88.20;;;;;;5057512;28;20036;-78
2022/05/14 14:21:14;;;;;;;48.20;7.35;;;20.50;79.30;;;;;;5074246;28;20117;-78